Time;durP1;ratioP1;P1;durP2;ratioP2;P2;SDS_P1;SDS_P2;PMS_P1;PMS_P2;Temp;Humidity;BMP_temperature;BMP_pressure;BME280_temperature;BME280_humidity;BME280_pressure;Samples;Min_cycle;Max_cycle;Signal;HPM_P1;HPM_P2
2022/01/12 12:22:50;;;;;;;28.33;17.03;;;6.20;99.90;;;;;;5100517;27;20739;-79
2022/01/12 12:25:17;;;;;;;27.33;11.17;;;6.20;99.90;;;;;;5068273;28;20441;-76
2022/01/12 12:27:46;;;;;;;25.63;11.97;;;6.20;99.90;;;;;;5086346;28;20167;-73
2022/01/12 12:30:14;;;;;;;25.13;11.43;;;6.20;99.90;;;;;;5067529;28;20048;-73
2022/01/12 12:32:56;;;;;;;27.10;13.77;;;6.30;99.90;;;;;;5067585;28;20123;-75
2022/01/12 12:35:29;;;;;;;31.70;12.23;;;6.30;99.90;;;;;;5086608;28;20044;-73
2022/01/12 12:38:00;;;;;;;28.03;12.27;;;6.30;99.90;;;;;;5085706;28;20044;-73
2022/01/12 12:40:50;;;;;;;25.52;11.65;;;6.30;99.90;;;;;;5085962;28;20135;-74
2022/01/12 12:43:33;;;;;;;25.43;12.80;;;6.40;99.90;;;;;;5086031;28;20458;-73
2022/01/12 12:46:02;;;;;;;30.23;12.67;;;6.40;99.90;;;;;;5085663;28;20095;-73
2022/01/12 12:48:36;;;;;;;27.17;12.53;;;6.40;99.90;;;;;;5068107;28;20052;-73
2022/01/12 12:51:12;;;;;;;28.67;15.73;;;6.50;99.90;;;;;;5066953;28;20476;-74
2022/01/12 12:53:41;;;;;;;32.43;14.20;;;6.50;99.90;;;;;;5068238;28;20409;-72
2022/01/12 12:56:11;;;;;;;28.83;12.57;;;6.60;99.90;;;;;;5068153;28;20039;-70
2022/01/12 12:58:37;;;;;;;25.73;13.87;;;6.70;99.90;;;;;;5067437;28;20060;-71
2022/01/12 13:01:08;;;;;;;32.07;14.90;;;6.70;99.90;;;;;;5067450;28;20512;-70
2022/01/12 13:03:36;;;;;;;31.70;14.90;;;6.80;99.90;;;;;;5067124;28;20051;-72
2022/01/12 13:06:02;;;;;;;25.93;11.93;;;6.80;99.90;;;;;;5067275;28;20405;-71
2022/01/12 13:08:28;;;;;;;25.47;12.13;;;6.80;99.90;;;;;;5067687;28;20056;-71
2022/01/12 13:10:53;;;;;;;26.00;10.93;;;6.90;99.90;;;;;;5085736;28;20047;-70
2022/01/12 13:13:19;;;;;;;23.40;11.13;;;6.90;99.90;;;;;;5066700;28;20028;-72
2022/01/12 13:15:45;;;;;;;34.87;12.77;;;6.90;99.90;;;;;;5067241;28;20485;-71
2022/01/12 13:18:20;;;;;;;26.73;11.20;;;7.00;99.90;;;;;;5067258;28;20393;-71
2022/01/12 19:07:23;;;;;;;89.77;31.53;;;5.90;99.90;;;;;;5090630;27;20437;-61
2022/01/12 19:09:51;;;;;;;88.97;31.50;;;5.80;99.90;;;;;;5086715;28;20079;-60
2022/01/12 19:12:23;;;;;;;101.37;36.57;;;5.90;99.90;;;;;;5085763;28;20044;-61
2022/01/12 19:14:50;;;;;;;95.87;38.00;;;5.90;99.90;;;;;;5085464;28;20059;-62
2022/01/12 19:17:16;;;;;;;89.53;34.63;;;5.90;99.90;;;;;;5086979;28;20040;-61
2022/01/12 19:19:41;;;;;;;103.83;33.53;;;5.90;99.90;;;;;;5085454;28;20040;-60
2022/01/12 19:22:07;;;;;;;103.63;41.57;;;6.00;99.90;;;;;;5086590;28;20657;-60
2022/01/12 19:24:33;;;;;;;86.47;33.80;;;6.00;99.90;;;;;;5084973;28;20671;-58
2022/01/12 19:26:58;;;;;;;80.87;32.47;;;6.00;99.90;;;;;;5085635;28;20102;-58
2022/01/12 19:29:24;;;;;;;84.53;34.57;;;6.10;99.90;;;;;;5085968;28;20032;-58
2022/01/12 19:31:51;;;;;;;81.43;34.73;;;6.10;99.90;;;;;;5085515;28;20516;-59
2022/01/12 19:34:16;;;;;;;86.10;33.40;;;6.20;99.90;;;;;;5086093;28;20052;-59
2022/01/12 19:36:43;;;;;;;84.80;37.80;;;6.20;99.90;;;;;;5085560;28;20055;-58
2022/01/12 19:39:09;;;;;;;73.27;32.80;;;6.30;99.90;;;;;;5085902;28;20043;-58
2022/01/12 19:41:35;;;;;;;80.07;33.93;;;6.30;99.90;;;;;;5085513;28;20052;-59
2022/01/12 19:44:01;;;;;;;85.47;33.43;;;6.40;99.90;;;;;;5085869;28;20075;-59
2022/01/12 19:46:31;;;;;;;76.80;32.53;;;6.40;99.90;;;;;;5084769;28;20048;-60
2022/01/12 19:49:02;;;;;;;87.60;36.33;;;6.40;99.90;;;;;;5085616;28;20036;-60
2022/01/12 19:52:16;;;;;;;73.78;32.78;;;6.50;99.90;;;;;;5085471;28;20075;-59
2022/01/12 19:54:54;;;;;;;77.10;31.07;;;6.50;99.90;;;;;;5076254;28;20106;-60
2022/01/12 19:57:28;;;;;;;77.97;32.70;;;6.50;99.90;;;;;;5085539;28;20374;-61
2022/01/12 19:59:57;;;;;;;75.67;30.70;;;6.60;99.90;;;;;;5085678;28;20131;-61
